createdAt,value
2023-02-11T00:01:34.775Z,24.90
2023-02-11T00:04:04.452Z,23.40
2023-02-11T00:06:34.842Z,22.00
2023-02-11T00:09:04.238Z,22.10
2023-02-11T00:11:32.554Z,21.90
2023-02-11T00:14:04.863Z,22.50
2023-02-11T00:16:33.036Z,22.70
2023-02-11T00:19:02.820Z,23.10
2023-02-11T00:21:32.203Z,21.70
2023-02-11T00:24:02.362Z,22.30
2023-02-11T00:26:34.391Z,22.50
2023-02-11T00:29:03.962Z,22.50
2023-02-11T00:31:33.659Z,24.30
2023-02-11T00:34:02.151Z,23.40
2023-02-11T00:36:30.276Z,23.30
2023-02-11T00:38:59.670Z,24.70
2023-02-11T00:41:30.045Z,23.00
2023-02-11T00:46:29.742Z,21.10
2023-02-11T00:48:58.122Z,22.60
2023-02-11T00:51:28.492Z,20.90
2023-02-11T00:53:57.338Z,22.10
2023-02-11T00:56:25.606Z,23.50
2023-02-11T00:58:54.219Z,22.70
2023-02-11T01:01:22.204Z,23.30
2023-02-11T01:03:50.304Z,23.30
2023-02-11T01:06:18.995Z,21.00
2023-02-11T01:08:46.830Z,21.00
2023-02-11T01:11:18.383Z,21.70
2023-02-11T01:13:48.016Z,21.20
2023-02-11T01:16:19.387Z,20.60
2023-02-11T01:18:48.559Z,19.80
2023-02-11T01:21:19.066Z,18.30
2023-02-11T01:23:47.063Z,19.00
2023-02-11T01:26:14.939Z,18.90
2023-02-11T01:28:42.980Z,19.00
2023-02-11T01:31:11.121Z,17.70
2023-02-11T01:33:39.106Z,18.70
2023-02-11T01:36:11.568Z,20.10
2023-02-11T01:38:41.277Z,18.70
2023-02-11T01:41:14.601Z,19.20
2023-02-11T01:43:46.853Z,19.00
2023-02-11T01:46:20.883Z,22.60
2023-02-11T01:48:55.535Z,20.90
2023-02-11T01:51:48.315Z,20.50
2023-02-11T01:54:40.850Z,18.70
2023-02-11T01:57:22.315Z,21.40
2023-02-11T02:00:14.477Z,25.90
2023-02-11T02:02:54.319Z,22.50
2023-02-11T02:05:34.770Z,20.50
2023-02-11T02:08:21.368Z,18.80
2023-02-11T02:10:56.448Z,17.70
2023-02-11T02:13:25.345Z,17.20
2023-02-11T02:16:00.088Z,18.60
2023-02-11T02:18:31.069Z,20.10
2023-02-11T02:21:28.277Z,18.80
2023-02-11T02:24:13.870Z,17.20
2023-02-11T02:27:00.533Z,17.70
2023-02-11T02:29:37.866Z,17.80
2023-02-11T02:32:35.291Z,18.20
2023-02-11T02:35:34.300Z,17.80
2023-02-11T02:38:02.134Z,18.70
2023-02-11T02:40:34.992Z,21.30
2023-02-11T02:43:04.213Z,24.90
2023-02-11T02:45:33.323Z,22.50
2023-02-11T02:48:01.147Z,28.80
2023-02-11T02:50:33.933Z,24.00
2023-02-11T02:53:20.717Z,25.00
2023-02-11T02:56:06.524Z,21.80
2023-02-11T02:59:03.634Z,20.70
2023-02-11T03:01:56.256Z,19.80
2023-02-11T03:04:37.633Z,17.60
2023-02-11T03:07:29.732Z,19.80
2023-02-11T03:10:03.980Z,19.10
2023-02-11T03:12:34.982Z,18.80
2023-02-11T03:17:36.038Z,16.70
2023-02-11T03:20:06.971Z,17.00
2023-02-11T03:22:41.555Z,18.50
2023-02-11T03:25:09.940Z,19.10
2023-02-11T03:27:47.209Z,20.90
2023-02-11T03:30:23.966Z,19.10
2023-02-11T03:33:14.785Z,19.10
2023-02-11T03:35:51.030Z,18.20
2023-02-11T03:38:34.957Z,18.00
2023-02-11T03:41:07.018Z,18.60
2023-02-11T03:43:42.134Z,18.20
2023-02-11T03:46:12.564Z,17.40
2023-02-11T03:48:55.124Z,18.10
2023-02-11T03:51:25.639Z,17.30
2023-02-11T03:53:57.894Z,17.90
2023-02-11T03:56:31.081Z,17.10
2023-02-11T03:58:59.009Z,17.50
2023-02-11T04:01:27.173Z,15.30
2023-02-11T04:03:55.162Z,17.50
2023-02-11T04:06:23.140Z,18.80
2023-02-11T04:08:51.031Z,17.30
2023-02-11T04:11:19.112Z,16.70
2023-02-11T04:13:46.987Z,16.20
2023-02-11T04:16:15.077Z,17.00
2023-02-11T04:18:42.984Z,16.60
2023-02-11T04:21:11.200Z,17.30
2023-02-11T04:23:39.140Z,16.80
2023-02-11T04:26:07.248Z,17.60
2023-02-11T04:28:36.410Z,16.60
2023-02-11T04:31:04.884Z,16.60
2023-02-11T04:33:32.927Z,18.00
2023-02-11T04:36:00.798Z,17.10
2023-02-11T04:38:28.609Z,18.10
2023-02-11T04:40:58.257Z,16.00
2023-02-11T04:43:26.229Z,16.00
2023-02-11T04:45:58.460Z,17.10
2023-02-11T04:48:26.754Z,16.60
2023-02-11T04:50:54.688Z,16.70
2023-02-11T04:53:22.980Z,16.20
2023-02-11T04:55:52.088Z,16.20
2023-02-11T04:58:20.545Z,16.50
2023-02-11T05:00:48.335Z,17.80
2023-02-11T05:03:16.553Z,15.50
2023-02-11T05:05:44.468Z,15.80
2023-02-11T05:08:12.536Z,16.40
2023-02-11T05:10:40.404Z,15.80
2023-02-11T05:13:08.317Z,15.60
2023-02-11T05:15:36.267Z,16.70
2023-02-11T05:18:04.679Z,15.00
2023-02-11T05:20:32.562Z,16.90
2023-02-11T05:23:00.418Z,18.40
2023-02-11T05:25:28.243Z,20.90
2023-02-11T05:27:56.241Z,23.80
2023-02-11T05:30:24.058Z,24.30
2023-02-11T05:32:52.336Z,22.00
2023-02-11T05:35:20.248Z,18.80
2023-02-11T05:37:48.092Z,18.80
2023-02-11T05:40:16.450Z,18.80
2023-02-11T05:42:44.478Z,17.40
2023-02-11T05:45:12.474Z,16.30
2023-02-11T05:47:40.339Z,16.80
2023-02-11T05:50:08.842Z,17.20
2023-02-11T05:52:36.792Z,14.50
2023-02-11T05:55:05.558Z,16.50
2023-02-11T05:57:33.461Z,16.70
2023-02-11T06:00:01.542Z,18.90
2023-02-11T06:02:40.386Z,19.70
2023-02-11T06:05:09.301Z,20.00
2023-02-11T06:07:39.708Z,20.00
2023-02-11T06:10:08.699Z,18.70
2023-02-11T06:12:39.410Z,19.40
2023-02-11T06:15:07.845Z,19.00
2023-02-11T06:17:37.505Z,16.60
2023-02-11T06:20:08.440Z,16.00
2023-02-11T06:25:04.788Z,13.30
2023-02-11T06:27:32.766Z,13.40
2023-02-11T06:30:00.615Z,13.90
2023-02-11T06:32:43.379Z,15.10
2023-02-11T06:35:12.869Z,14.70
2023-02-11T06:37:42.292Z,14.20
2023-02-11T06:40:11.830Z,15.10
2023-02-11T06:42:39.935Z,14.00
2023-02-11T06:45:13.164Z,14.30
2023-02-11T06:47:41.659Z,13.60
2023-02-11T06:50:14.089Z,16.50
2023-02-11T06:52:42.059Z,15.80
2023-02-11T06:55:10.251Z,19.40
2023-02-11T06:57:43.510Z,18.70
2023-02-11T07:00:12.482Z,18.50
2023-02-11T07:02:40.577Z,16.70
2023-02-11T07:05:09.434Z,19.30
2023-02-11T07:07:37.944Z,24.10
2023-02-11T07:10:07.024Z,30.50
2023-02-11T07:12:35.043Z,29.20
2023-02-11T07:15:03.436Z,29.30
2023-02-11T07:17:31.345Z,28.80
2023-02-11T07:19:59.202Z,24.70
2023-02-11T07:22:27.425Z,24.40
2023-02-11T07:24:55.329Z,21.20
2023-02-11T07:27:23.334Z,20.70
2023-02-11T07:29:51.437Z,19.10
2023-02-11T07:32:19.613Z,18.70
2023-02-11T07:34:48.633Z,20.30
2023-02-11T07:37:16.811Z,15.90
2023-02-11T07:39:44.689Z,15.70
2023-02-11T07:42:12.777Z,19.20
2023-02-11T07:44:40.709Z,16.90
2023-02-11T07:47:08.879Z,19.40
2023-02-11T07:49:36.877Z,17.00
2023-02-11T07:52:04.861Z,18.10
2023-02-11T07:54:32.925Z,17.10
2023-02-11T07:57:00.772Z,16.50
2023-02-11T07:59:35.928Z,19.80
2023-02-11T08:02:04.040Z,21.30
2023-02-11T08:04:32.072Z,21.70
2023-02-11T08:07:00.057Z,21.30
2023-02-11T08:09:27.975Z,21.90
2023-02-11T08:11:55.905Z,20.70
2023-02-11T08:14:25.381Z,17.30
2023-02-11T08:16:53.488Z,17.80
2023-02-11T08:19:21.507Z,17.20
2023-02-11T08:21:50.101Z,15.30
2023-02-11T08:24:17.946Z,25.40
2023-02-11T08:26:46.052Z,16.90
2023-02-11T08:29:15.767Z,16.10
2023-02-11T08:31:47.235Z,17.60
2023-02-11T08:34:18.540Z,15.70
2023-02-11T08:36:47.914Z,14.90
2023-02-11T08:39:20.457Z,15.20
2023-02-11T08:41:54.057Z,15.10
2023-02-11T08:44:23.507Z,15.50
2023-02-11T08:46:51.993Z,16.70
2023-02-11T08:49:20.579Z,16.70
2023-02-11T08:51:49.725Z,17.10
2023-02-11T08:54:18.013Z,16.00
2023-02-11T08:56:46.381Z,17.60
2023-02-11T08:59:15.662Z,16.50
2023-02-11T09:01:44.665Z,16.10
2023-02-11T09:04:13.068Z,15.30
2023-02-11T09:06:41.469Z,14.40
2023-02-11T09:09:13.630Z,15.00
2023-02-11T09:11:43.325Z,16.30
2023-02-11T09:14:23.179Z,15.10
2023-02-11T09:16:51.934Z,14.60
2023-02-11T09:19:21.270Z,13.30
2023-02-11T09:21:49.617Z,12.50
2023-02-11T09:24:18.598Z,16.00
2023-02-11T09:26:46.645Z,13.70
2023-02-11T09:29:14.573Z,14.50
2023-02-11T09:31:42.801Z,14.00
2023-02-11T09:34:12.183Z,15.50
2023-02-11T09:36:41.596Z,14.40
2023-02-11T09:39:14.481Z,14.80
2023-02-11T09:41:54.599Z,15.80
2023-02-11T09:44:27.220Z,20.80
2023-02-11T09:46:59.817Z,26.40
2023-02-11T09:49:45.404Z,28.40
2023-02-11T09:52:53.053Z,19.70
2023-02-11T09:55:27.041Z,15.50
2023-02-11T09:57:56.380Z,17.00
2023-02-11T10:00:34.625Z,15.30
2023-02-11T10:03:38.809Z,16.20
2023-02-11T10:06:22.110Z,16.10
2023-02-11T10:09:12.943Z,18.10
2023-02-11T10:11:59.476Z,16.60
2023-02-11T10:15:09.633Z,14.00
2023-02-11T10:18:22.696Z,15.30
2023-02-11T10:21:23.529Z,18.40
2023-02-11T10:23:57.306Z,15.30
2023-02-11T10:26:30.989Z,16.40
2023-02-11T10:29:02.332Z,19.10
2023-02-11T10:31:42.069Z,19.40
2023-02-11T10:34:11.858Z,17.50
2023-02-11T10:36:43.405Z,17.90
2023-02-11T10:39:13.224Z,19.10
2023-02-11T10:41:46.298Z,17.60
2023-02-11T10:44:50.128Z,18.10
2023-02-11T10:47:22.807Z,20.40
2023-02-11T10:49:51.239Z,26.10
2023-02-11T10:52:30.607Z,25.30
2023-02-11T10:55:24.410Z,40.20
2023-02-11T10:58:02.981Z,26.50
2023-02-11T11:00:36.144Z,19.60
2023-02-11T11:03:17.750Z,21.60
2023-02-11T11:05:47.268Z,25.30
2023-02-11T11:08:16.599Z,22.70
2023-02-11T11:11:05.163Z,18.60
2023-02-11T11:13:42.524Z,20.00
2023-02-11T11:16:13.221Z,18.80
2023-02-11T11:18:43.917Z,19.40
2023-02-11T11:21:33.609Z,19.20
2023-02-11T11:24:03.904Z,20.00
2023-02-11T11:26:50.846Z,23.10
2023-02-11T11:29:26.962Z,20.50
2023-02-11T11:32:04.869Z,24.30
2023-02-11T11:34:32.849Z,37.30
2023-02-11T11:37:10.409Z,24.20
2023-02-11T11:39:40.025Z,20.20
2023-02-11T11:42:29.272Z,18.60
2023-02-11T11:45:02.618Z,19.00
2023-02-11T11:47:41.534Z,19.30
2023-02-11T11:50:28.128Z,19.10
2023-02-11T11:53:25.688Z,17.90
2023-02-11T11:56:30.096Z,18.60
2023-02-11T11:59:03.722Z,18.00
2023-02-11T12:02:06.221Z,18.60
2023-02-11T12:04:38.401Z,16.40
2023-02-11T12:07:12.720Z,19.50
2023-02-11T12:09:59.121Z,17.60
2023-02-11T12:12:39.362Z,17.80
2023-02-11T12:15:39.493Z,18.10
2023-02-11T12:18:54.186Z,18.80
2023-02-11T12:21:52.985Z,19.10
2023-02-11T12:24:48.990Z,19.00
2023-02-11T12:27:29.874Z,17.80
2023-02-11T12:30:08.078Z,16.70
2023-02-11T12:33:09.761Z,18.60
2023-02-11T12:36:00.205Z,18.80
2023-02-11T12:38:52.309Z,17.20
2023-02-11T12:42:24.042Z,20.80
2023-02-11T12:45:04.084Z,18.90
2023-02-11T12:47:56.701Z,19.90
2023-02-11T12:50:52.944Z,19.30
2023-02-11T12:53:56.410Z,19.80
2023-02-11T12:56:38.170Z,18.50
2023-02-11T12:59:16.166Z,18.90
2023-02-11T13:01:45.125Z,18.50
2023-02-11T13:04:53.960Z,20.30
2023-02-11T13:07:32.444Z,22.90
2023-02-11T13:10:15.673Z,21.60
2023-02-11T13:15:35.547Z,21.40
2023-02-11T13:18:13.464Z,19.60
2023-02-11T13:20:51.790Z,20.30
2023-02-11T13:23:44.024Z,22.40
2023-02-11T13:26:20.873Z,22.30
2023-02-11T13:29:17.938Z,20.80
2023-02-11T13:31:56.571Z,21.40
2023-02-11T13:34:44.494Z,23.60
2023-02-11T13:37:26.660Z,23.70
2023-02-11T13:40:20.782Z,21.90
2023-02-11T13:42:57.931Z,20.60
2023-02-11T13:45:29.036Z,21.60
2023-02-11T13:48:04.529Z,22.90
2023-02-11T13:50:39.611Z,27.30
2023-02-11T13:53:08.971Z,25.90
2023-02-11T13:55:38.326Z,24.40
2023-02-11T13:58:06.280Z,23.70
2023-02-11T14:00:34.196Z,23.80
2023-02-11T14:03:30.209Z,24.90
2023-02-11T14:06:29.222Z,25.80
2023-02-11T14:09:09.676Z,25.30
2023-02-11T14:11:40.972Z,23.60
2023-02-11T14:14:24.424Z,25.30
2023-02-11T14:16:58.818Z,24.80
2023-02-11T14:19:45.135Z,25.80
2023-02-11T14:22:27.717Z,25.50
2023-02-11T14:24:59.453Z,26.60
2023-02-11T14:27:27.534Z,24.40
2023-02-11T14:30:23.068Z,27.70
2023-02-11T14:32:57.068Z,26.40
2023-02-11T14:35:39.556Z,25.90
2023-02-11T14:38:34.138Z,25.30
2023-02-11T14:41:22.522Z,27.50
2023-02-11T14:43:55.381Z,28.00
2023-02-11T14:46:25.305Z,28.60
2023-02-11T14:48:57.644Z,34.60
2023-02-11T14:51:31.584Z,32.50
2023-02-11T14:54:24.983Z,36.80
2023-02-11T14:57:12.440Z,29.20
2023-02-11T14:59:52.514Z,31.70
2023-02-11T15:02:23.934Z,31.40
2023-02-11T15:04:52.012Z,32.60
2023-02-11T15:07:20.052Z,32.80
2023-02-11T15:09:53.893Z,32.90
2023-02-11T15:12:28.353Z,28.30
2023-02-11T15:15:00.281Z,29.60
2023-02-11T15:17:31.934Z,29.50
2023-02-11T15:20:01.935Z,29.50
2023-02-11T15:22:36.506Z,32.10
2023-02-11T15:25:07.470Z,31.20
2023-02-11T15:27:48.312Z,30.60
2023-02-11T15:30:22.495Z,34.10
2023-02-11T15:32:58.143Z,33.40
2023-02-11T15:35:35.111Z,34.30
2023-02-11T15:38:04.400Z,34.60
2023-02-11T15:40:35.571Z,31.70
2023-02-11T15:43:09.116Z,36.00
2023-02-11T15:45:41.862Z,34.80
2023-02-11T15:48:17.388Z,39.10
2023-02-11T15:51:01.418Z,31.90
2023-02-11T15:53:33.027Z,31.70
2023-02-11T15:56:08.158Z,31.50
2023-02-11T15:58:38.383Z,29.20
2023-02-11T16:01:07.685Z,32.00
2023-02-11T16:03:36.369Z,31.60
2023-02-11T16:06:35.805Z,31.90
2023-02-11T16:09:12.758Z,32.00
2023-02-11T16:11:47.117Z,32.60
2023-02-11T16:14:31.188Z,33.50
2023-02-11T16:17:04.069Z,32.40
2023-02-11T16:19:34.038Z,33.00
2023-02-11T16:22:09.132Z,33.70
2023-02-11T16:24:39.279Z,33.00
2023-02-11T16:27:28.615Z,33.60
2023-02-11T16:29:57.971Z,35.30
2023-02-11T16:32:30.284Z,34.80
2023-02-11T16:35:01.382Z,35.80
2023-02-11T16:39:58.296Z,32.20
2023-02-11T16:42:26.342Z,30.90
2023-02-11T16:44:54.406Z,33.50
2023-02-11T16:47:27.589Z,32.50
2023-02-11T16:49:56.950Z,32.90
2023-02-11T16:52:25.690Z,34.00
2023-02-11T16:54:53.866Z,31.00
2023-02-11T16:57:24.082Z,32.50
2023-02-11T16:59:52.994Z,35.00
2023-02-11T17:02:30.500Z,33.90
2023-02-11T17:05:01.934Z,33.50
2023-02-11T17:07:30.008Z,34.80
2023-02-11T17:09:58.265Z,32.60
2023-02-11T17:12:27.272Z,32.40
2023-02-11T17:14:55.308Z,31.60
2023-02-11T17:17:24.022Z,31.80
2023-02-11T17:19:52.074Z,53.10
2023-02-11T17:22:20.176Z,50.50
2023-02-11T17:24:48.213Z,40.10
2023-02-11T17:27:16.394Z,35.50
2023-02-11T17:29:44.454Z,36.90
2023-02-11T17:32:12.661Z,31.80
2023-02-11T17:34:40.935Z,32.80
2023-02-11T17:37:09.648Z,31.20
2023-02-11T17:39:39.891Z,31.00
2023-02-11T17:42:08.864Z,30.90
2023-02-11T17:44:37.354Z,35.90
2023-02-11T17:47:05.419Z,35.20
2023-02-11T17:49:33.487Z,38.50
2023-02-11T17:52:01.643Z,34.80
2023-02-11T17:54:29.672Z,32.40
2023-02-11T17:56:58.592Z,33.30
2023-02-11T17:59:28.571Z,34.30
2023-02-11T18:01:56.388Z,34.60
2023-02-11T18:04:24.422Z,37.20
2023-02-11T18:06:53.717Z,35.00
2023-02-11T18:09:21.663Z,34.10
2023-02-11T18:11:52.537Z,38.10
2023-02-11T18:14:22.282Z,34.60
2023-02-11T18:16:52.227Z,31.30
2023-02-11T18:19:20.679Z,31.90
2023-02-11T18:21:50.532Z,32.10
2023-02-11T18:24:18.723Z,29.00
2023-02-11T18:26:46.735Z,28.90
2023-02-11T18:29:15.033Z,30.90
2023-02-11T18:31:43.334Z,25.90
2023-02-11T18:34:14.832Z,29.70
2023-02-11T18:36:42.966Z,29.70
2023-02-11T18:39:11.069Z,28.00
2023-02-11T18:41:41.438Z,29.70
2023-02-11T18:44:11.063Z,31.40
2023-02-11T18:46:39.060Z,30.40
2023-02-11T18:49:07.339Z,31.60
2023-02-11T18:51:35.464Z,27.80
2023-02-11T18:54:03.690Z,28.80
2023-02-11T18:56:31.698Z,30.90
2023-02-11T18:59:01.463Z,29.50
2023-02-11T19:01:34.223Z,27.40
2023-02-11T19:04:04.681Z,28.10
2023-02-11T19:06:36.441Z,28.20
2023-02-11T19:09:10.102Z,31.20
2023-02-11T19:11:53.968Z,31.20
2023-02-11T19:14:27.299Z,25.10
2023-02-11T19:16:57.760Z,25.80
2023-02-11T19:19:29.615Z,26.00
2023-02-11T19:21:59.554Z,28.30
2023-02-11T19:24:29.062Z,25.20
2023-02-11T19:27:00.186Z,28.10
2023-02-11T19:31:56.868Z,28.30
2023-02-11T19:34:25.136Z,29.80
2023-02-11T19:36:54.435Z,29.60
2023-02-11T19:39:24.816Z,27.00
2023-02-11T19:41:53.481Z,28.80
2023-02-11T19:44:21.637Z,30.40
2023-02-11T19:46:52.789Z,30.30
2023-02-11T19:49:26.047Z,29.10
2023-02-11T19:51:55.510Z,28.30
2023-02-11T19:54:26.259Z,29.70
2023-02-11T19:56:54.270Z,29.00
2023-02-11T19:59:22.480Z,29.70
2023-02-11T20:01:50.602Z,30.10
2023-02-11T20:04:20.146Z,29.80
2023-02-11T20:06:49.075Z,26.60
2023-02-11T20:09:17.233Z,27.30
2023-02-11T20:11:45.486Z,27.00
2023-02-11T20:14:15.316Z,24.30
2023-02-11T20:16:48.990Z,25.60
2023-02-11T20:19:21.581Z,23.70
2023-02-11T20:21:56.281Z,27.20
2023-02-11T20:24:28.250Z,26.20
2023-02-11T20:26:56.582Z,26.30
2023-02-11T20:29:26.028Z,26.40
2023-02-11T20:31:55.009Z,25.20
2023-02-11T20:34:25.037Z,26.40
2023-02-11T20:36:53.557Z,24.90
2023-02-11T20:39:23.541Z,29.00
2023-02-11T20:41:52.560Z,25.70
2023-02-11T20:44:24.544Z,29.90
2023-02-11T20:46:54.572Z,27.30
2023-02-11T20:49:24.650Z,29.00
2023-02-11T20:51:54.030Z,27.50
2023-02-11T20:54:23.695Z,27.60
2023-02-11T20:56:57.131Z,28.00
2023-02-11T20:59:28.649Z,25.90
2023-02-11T21:01:57.412Z,24.50
2023-02-11T21:04:30.886Z,28.70
2023-02-11T21:07:01.839Z,25.50
2023-02-11T21:09:33.368Z,32.20
2023-02-11T21:12:03.215Z,33.40
2023-02-11T21:14:31.316Z,33.60
2023-02-11T21:17:14.436Z,29.40
2023-02-11T21:19:54.564Z,25.10
2023-02-11T21:22:22.546Z,29.90
2023-02-11T21:24:51.121Z,29.40
2023-02-11T21:27:20.717Z,32.40
2023-02-11T21:29:54.444Z,29.50
2023-02-11T21:32:28.968Z,29.00
2023-02-11T21:35:00.543Z,27.50
2023-02-11T21:37:29.982Z,24.90
2023-02-11T21:39:58.284Z,27.60
2023-02-11T21:42:29.329Z,24.50
2023-02-11T21:44:59.444Z,26.50
2023-02-11T21:47:27.945Z,28.00
2023-02-11T21:49:56.130Z,26.70
2023-02-11T21:52:25.045Z,25.20
2023-02-11T21:54:53.015Z,28.60
2023-02-11T21:57:20.951Z,29.00
2023-02-11T21:59:48.964Z,27.50
2023-02-11T22:02:16.998Z,23.10
2023-02-11T22:04:45.074Z,24.70
2023-02-11T22:07:13.075Z,27.60
2023-02-11T22:09:41.882Z,28.80
2023-02-11T22:12:10.329Z,26.40
2023-02-11T22:14:38.914Z,25.70
2023-02-11T22:17:08.730Z,23.10
2023-02-11T22:19:36.730Z,28.20
2023-02-11T22:22:05.046Z,27.30
2023-02-11T22:24:33.376Z,26.70
2023-02-11T22:27:02.277Z,27.80
2023-02-11T22:29:30.385Z,25.70
2023-02-11T22:31:58.699Z,27.20
2023-02-11T22:34:26.692Z,24.50
2023-02-11T22:36:54.706Z,24.40
2023-02-11T22:39:23.046Z,26.70
2023-02-11T22:41:53.029Z,25.90
2023-02-11T22:44:21.892Z,23.70
2023-02-11T22:46:51.261Z,25.70
2023-02-11T22:49:21.461Z,25.50
2023-02-11T22:51:49.515Z,27.40
2023-02-11T22:54:19.278Z,24.80
2023-02-11T22:56:51.022Z,24.80
2023-02-11T22:59:19.426Z,25.70
2023-02-11T23:01:47.859Z,24.60
2023-02-11T23:04:19.190Z,23.60
2023-02-11T23:06:47.938Z,24.30
2023-02-11T23:09:16.692Z,27.10
2023-02-11T23:11:44.875Z,25.40
2023-02-11T23:14:12.934Z,24.80
2023-02-11T23:16:41.404Z,26.50
2023-02-11T23:19:10.893Z,26.50
2023-02-11T23:21:39.850Z,27.00
2023-02-11T23:24:12.205Z,26.10
2023-02-11T23:26:42.288Z,26.10
2023-02-11T23:29:11.185Z,26.20
2023-02-11T23:31:43.520Z,28.80
2023-02-11T23:34:15.082Z,24.90
2023-02-11T23:36:44.436Z,25.70
2023-02-11T23:39:15.567Z,26.00
2023-02-11T23:41:44.251Z,26.30
2023-02-11T23:44:12.202Z,25.30
2023-02-11T23:46:40.192Z,25.40
2023-02-11T23:49:08.146Z,28.80
2023-02-11T23:51:36.129Z,29.70
2023-02-11T23:54:04.188Z,27.50
2023-02-11T23:56:32.150Z,27.30
2023-02-11T23:59:00.124Z,29.10
